sensor_id;sensor_type;location;lat;lon;timestamp;pressure;altitude;pressure_sealevel;temperature;humidity
40117;BME280;25829;50.228;18.936;2023-10-31T00:00:13;97125.72;;;14.08;69.82
40117;BME280;25829;50.228;18.936;2023-10-31T00:04:03;97120.16;;;14.14;69.01
40117;BME280;25829;50.228;18.936;2023-10-31T00:07:20;97110.88;;;14.17;68.49
40117;BME280;25829;50.228;18.936;2023-10-31T00:10:34;97118.31;;;14.20;67.77
40117;BME280;25829;50.228;18.936;2023-10-31T00:13:37;97103.72;;;14.23;67.00
40117;BME280;25829;50.228;18.936;2023-10-31T00:17:12;97101.91;;;14.28;66.75
40117;BME280;25829;50.228;18.936;2023-10-31T00:20:24;97090.50;;;14.33;66.03
40117;BME280;25829;50.228;18.936;2023-10-31T00:23:45;97075.94;;;14.41;65.66
40117;BME280;25829;50.228;18.936;2023-10-31T00:27:10;97074.84;;;14.52;63.43
40117;BME280;25829;50.228;18.936;2023-10-31T00:30:28;97068.47;;;14.63;64.06
40117;BME280;25829;50.228;18.936;2023-10-31T00:33:32;97082.53;;;14.79;62.27
40117;BME280;25829;50.228;18.936;2023-10-31T00:36:59;97078.47;;;15.02;60.34
40117;BME280;25829;50.228;18.936;2023-10-31T00:40:12;97064.88;;;15.19;60.81
40117;BME280;25829;50.228;18.936;2023-10-31T00:43:24;97054.00;;;15.30;60.65
40117;BME280;25829;50.228;18.936;2023-10-31T00:46:36;97036.38;;;15.40;59.99
40117;BME280;25829;50.228;18.936;2023-10-31T00:50:20;97029.19;;;15.45;60.70
40117;BME280;25829;50.228;18.936;2023-10-31T00:53:28;97028.13;;;15.51;59.90
40117;BME280;25829;50.228;18.936;2023-10-31T00:56:31;97028.59;;;15.59;59.37
40117;BME280;25829;50.228;18.936;2023-10-31T00:59:35;97021.13;;;15.66;57.37
40117;BME280;25829;50.228;18.936;2023-10-31T01:02:37;97015.75;;;15.71;56.68
40117;BME280;25829;50.228;18.936;2023-10-31T01:05:56;97018.09;;;15.77;57.65
40117;BME280;25829;50.228;18.936;2023-10-31T01:08:58;97016.75;;;15.80;56.81
40117;BME280;25829;50.228;18.936;2023-10-31T01:12:06;97008.25;;;15.83;57.89
40117;BME280;25829;50.228;18.936;2023-10-31T01:15:07;97003.16;;;15.87;55.05
40117;BME280;25829;50.228;18.936;2023-10-31T01:18:35;96990.56;;;15.97;55.95
40117;BME280;25829;50.228;18.936;2023-10-31T01:22:13;96980.66;;;16.03;54.93
40117;BME280;25829;50.228;18.936;2023-10-31T01:25:41;96957.03;;;16.01;54.31
40117;BME280;25829;50.228;18.936;2023-10-31T01:28:49;96944.81;;;16.00;55.50
40117;BME280;25829;50.228;18.936;2023-10-31T01:31:59;96940.53;;;15.99;56.34
40117;BME280;25829;50.228;18.936;2023-10-31T01:35:02;96932.31;;;15.96;55.89
40117;BME280;25829;50.228;18.936;2023-10-31T01:38:06;96947.78;;;15.94;55.79
40117;BME280;25829;50.228;18.936;2023-10-31T01:41:26;96930.75;;;15.95;55.85
40117;BME280;25829;50.228;18.936;2023-10-31T01:44:36;96940.03;;;15.97;54.79
40117;BME280;25829;50.228;18.936;2023-10-31T01:47:46;96928.31;;;15.98;54.35
40117;BME280;25829;50.228;18.936;2023-10-31T01:50:51;96931.50;;;16.00;55.27
40117;BME280;25829;50.228;18.936;2023-10-31T01:53:57;96935.47;;;16.03;54.98
40117;BME280;25829;50.228;18.936;2023-10-31T01:57:28;96929.56;;;16.06;55.47
40117;BME280;25829;50.228;18.936;2023-10-31T02:00:33;96933.06;;;16.07;55.31
40117;BME280;25829;50.228;18.936;2023-10-31T02:03:36;96916.81;;;16.08;55.92
40117;BME280;25829;50.228;18.936;2023-10-31T02:06:47;96913.34;;;16.08;56.04
40117;BME280;25829;50.228;18.936;2023-10-31T02:09:59;96913.34;;;16.08;56.03
40117;BME280;25829;50.228;18.936;2023-10-31T02:13:24;96916.28;;;16.06;56.52
40117;BME280;25829;50.228;18.936;2023-10-31T02:16:58;96915.00;;;16.03;56.31
40117;BME280;25829;50.228;18.936;2023-10-31T02:20:17;96906.50;;;16.01;56.91
40117;BME280;25829;50.228;18.936;2023-10-31T02:24:02;96899.06;;;15.98;57.00
40117;BME280;25829;50.228;18.936;2023-10-31T02:27:29;96885.88;;;15.88;58.23
40117;BME280;25829;50.228;18.936;2023-10-31T02:30:49;96890.47;;;15.83;58.03
40117;BME280;25829;50.228;18.936;2023-10-31T02:34:06;96890.47;;;15.77;58.51
40117;BME280;25829;50.228;18.936;2023-10-31T02:37:39;96884.41;;;15.72;59.11
40117;BME280;25829;50.228;18.936;2023-10-31T02:40:54;96874.13;;;15.65;59.36
40117;BME280;25829;50.228;18.936;2023-10-31T02:44:33;96876.31;;;15.58;59.27
40117;BME280;25829;50.228;18.936;2023-10-31T02:47:44;96867.28;;;15.54;58.98
40117;BME280;25829;50.228;18.936;2023-10-31T02:51:22;96871.31;;;15.51;58.43
40117;BME280;25829;50.228;18.936;2023-10-31T02:54:38;96866.25;;;15.50;59.43
40117;BME280;25829;50.228;18.936;2023-10-31T02:58:02;96884.63;;;15.46;59.24
40117;BME280;25829;50.228;18.936;2023-10-31T03:01:19;96884.91;;;15.45;58.48
40117;BME280;25829;50.228;18.936;2023-10-31T03:04:53;96867.13;;;15.40;57.97
40117;BME280;25829;50.228;18.936;2023-10-31T03:08:13;96870.34;;;15.37;58.48
40117;BME280;25829;50.228;18.936;2023-10-31T03:11:32;96860.28;;;15.34;58.91
40117;BME280;25829;50.228;18.936;2023-10-31T03:14:38;96859.22;;;15.30;58.95
40117;BME280;25829;50.228;18.936;2023-10-31T03:17:46;96852.63;;;15.27;58.66
40117;BME280;25829;50.228;18.936;2023-10-31T03:20:53;96853.94;;;15.25;58.63
40117;BME280;25829;50.228;18.936;2023-10-31T03:24:09;96853.41;;;15.23;58.80
40117;BME280;25829;50.228;18.936;2023-10-31T03:27:22;96851.28;;;15.25;59.08
40117;BME280;25829;50.228;18.936;2023-10-31T03:31:09;96851.28;;;15.25;58.27
40117;BME280;25829;50.228;18.936;2023-10-31T03:34:21;96839.59;;;15.26;58.33
40117;BME280;25829;50.228;18.936;2023-10-31T03:37:35;96821.25;;;15.29;58.77
40117;BME280;25829;50.228;18.936;2023-10-31T03:40:53;96824.44;;;15.31;58.44
40117;BME280;25829;50.228;18.936;2023-10-31T03:44:12;96820.44;;;15.34;57.74
40117;BME280;25829;50.228;18.936;2023-10-31T03:47:43;96816.16;;;15.38;57.43
40117;BME280;25829;50.228;18.936;2023-10-31T03:50:58;96812.38;;;15.44;57.32
40117;BME280;25829;50.228;18.936;2023-10-31T03:54:09;96808.03;;;15.53;57.27
40117;BME280;25829;50.228;18.936;2023-10-31T03:57:21;96807.75;;;15.55;57.66
40117;BME280;25829;50.228;18.936;2023-10-31T04:00:59;96796.44;;;15.68;55.81
40117;BME280;25829;50.228;18.936;2023-10-31T04:04:06;96785.94;;;15.82;55.73
40117;BME280;25829;50.228;18.936;2023-10-31T04:07:15;96781.78;;;16.00;54.20
40117;BME280;25829;50.228;18.936;2023-10-31T04:10:19;96775.19;;;16.21;53.74
40117;BME280;25829;50.228;18.936;2023-10-31T04:13:21;96773.63;;;16.39;52.95
40117;BME280;25829;50.228;18.936;2023-10-31T04:16:28;96764.94;;;16.53;52.82
40117;BME280;25829;50.228;18.936;2023-10-31T04:19:33;96745.56;;;16.66;51.62
40117;BME280;25829;50.228;18.936;2023-10-31T04:22:52;96736.13;;;16.73;51.71
40117;BME280;25829;50.228;18.936;2023-10-31T04:26:19;96736.00;;;16.84;49.52
40117;BME280;25829;50.228;18.936;2023-10-31T04:30:14;96740.06;;;16.95;50.44
40117;BME280;25829;50.228;18.936;2023-10-31T04:34:14;96750.66;;;17.00;49.30
40117;BME280;25829;50.228;18.936;2023-10-31T04:37:56;96770.78;;;17.06;49.24
40117;BME280;25829;50.228;18.936;2023-10-31T04:41:18;96773.19;;;17.08;50.87
40117;BME280;25829;50.228;18.936;2023-10-31T04:45:47;96752.84;;;17.12;48.12
40117;BME280;25829;50.228;18.936;2023-10-31T04:49:59;96756.53;;;17.16;49.51
40117;BME280;25829;50.228;18.936;2023-10-31T04:53:45;96751.16;;;17.21;50.44
40117;BME280;25829;50.228;18.936;2023-10-31T04:56:55;96751.41;;;17.19;50.20
40117;BME280;25829;50.228;18.936;2023-10-31T05:00:30;96748.28;;;17.17;49.46
40117;BME280;25829;50.228;18.936;2023-10-31T05:03:41;96754.66;;;17.16;49.54
40117;BME280;25829;50.228;18.936;2023-10-31T05:07:23;96759.22;;;17.16;47.73
40117;BME280;25829;50.228;18.936;2023-10-31T05:10:48;96764.84;;;17.14;49.40
40117;BME280;25829;50.228;18.936;2023-10-31T05:13:59;96770.72;;;17.11;48.58
40117;BME280;25829;50.228;18.936;2023-10-31T05:17:09;96769.94;;;17.11;48.64
40117;BME280;25829;50.228;18.936;2023-10-31T05:20:47;96771.00;;;17.10;48.09
40117;BME280;25829;50.228;18.936;2023-10-31T05:23:48;96779.28;;;17.08;47.96
40117;BME280;25829;50.228;18.936;2023-10-31T05:26:49;96760.34;;;17.10;48.45
40117;BME280;25829;50.228;18.936;2023-10-31T05:29:49;96782.75;;;17.09;48.40
40117;BME280;25829;50.228;18.936;2023-10-31T05:33:14;96771.78;;;17.10;48.61
40117;BME280;25829;50.228;18.936;2023-10-31T05:36:26;96780.00;;;17.14;48.78
40117;BME280;25829;50.228;18.936;2023-10-31T05:39:30;96777.84;;;17.16;48.65
40117;BME280;25829;50.228;18.936;2023-10-31T05:42:48;96795.72;;;17.15;47.66
40117;BME280;25829;50.228;18.936;2023-10-31T05:46:37;96798.59;;;17.19;48.47
40117;BME280;25829;50.228;18.936;2023-10-31T05:50:10;96791.59;;;17.23;47.80
40117;BME280;25829;50.228;18.936;2023-10-31T05:54:07;96797.13;;;17.27;47.18
40117;BME280;25829;50.228;18.936;2023-10-31T05:57:31;96800.31;;;17.29;47.76
40117;BME280;25829;50.228;18.936;2023-10-31T06:00:37;96792.13;;;17.25;48.16
40117;BME280;25829;50.228;18.936;2023-10-31T06:03:59;96795.84;;;17.24;48.61
40117;BME280;25829;50.228;18.936;2023-10-31T06:07:38;96802.78;;;17.25;47.01
40117;BME280;25829;50.228;18.936;2023-10-31T06:16:24;96800.75;;;17.17;48.11
40117;BME280;25829;50.228;18.936;2023-10-31T06:20:58;96813.59;;;17.15;47.70
40117;BME280;25829;50.228;18.936;2023-10-31T06:25:27;96838.13;;;17.12;48.23
40117;BME280;25829;50.228;18.936;2023-10-31T06:30:06;96836.31;;;17.07;48.22
40117;BME280;25829;50.228;18.936;2023-10-31T06:34:36;96833.94;;;17.06;49.25
40117;BME280;25829;50.228;18.936;2023-10-31T06:38:36;96849.22;;;17.00;50.02
40117;BME280;25829;50.228;18.936;2023-10-31T06:41:38;96869.50;;;16.96;50.16
40117;BME280;25829;50.228;18.936;2023-10-31T06:44:39;96859.50;;;16.88;49.46
40117;BME280;25829;50.228;18.936;2023-10-31T06:47:39;96866.19;;;16.85;50.12
40117;BME280;25829;50.228;18.936;2023-10-31T06:50:40;96872.38;;;16.81;50.64
40117;BME280;25829;50.228;18.936;2023-10-31T06:53:41;96875.09;;;16.75;50.95
40117;BME280;25829;50.228;18.936;2023-10-31T06:56:42;96871.97;;;16.68;51.16
40117;BME280;25829;50.228;18.936;2023-10-31T06:59:43;96885.06;;;16.65;50.83
40117;BME280;25829;50.228;18.936;2023-10-31T07:02:43;96887.28;;;16.58;51.30
40117;BME280;25829;50.228;18.936;2023-10-31T07:05:44;96882.84;;;16.53;51.41
40117;BME280;25829;50.228;18.936;2023-10-31T07:08:45;96863.19;;;16.49;51.85
40117;BME280;25829;50.228;18.936;2023-10-31T07:11:46;96860.31;;;16.45;51.82
40117;BME280;25829;50.228;18.936;2023-10-31T07:14:46;96851.88;;;16.38;52.11
40117;BME280;25829;50.228;18.936;2023-10-31T07:17:47;96862.00;;;16.36;52.53
40117;BME280;25829;50.228;18.936;2023-10-31T07:20:48;96865.75;;;16.35;52.30
40117;BME280;25829;50.228;18.936;2023-10-31T07:23:49;96873.22;;;16.33;52.69
40117;BME280;25829;50.228;18.936;2023-10-31T07:26:49;96870.06;;;16.31;52.85
40117;BME280;25829;50.228;18.936;2023-10-31T07:29:50;96884.41;;;16.30;53.01
40117;BME280;25829;50.228;18.936;2023-10-31T07:32:54;96893.78;;;16.27;52.75
40117;BME280;25829;50.228;18.936;2023-10-31T07:35:55;96891.16;;;16.22;53.31
40117;BME280;25829;50.228;18.936;2023-10-31T07:38:57;96896.75;;;16.21;53.32
40117;BME280;25829;50.228;18.936;2023-10-31T07:42:14;96890.91;;;16.19;53.60
40117;BME280;25829;50.228;18.936;2023-10-31T07:45:15;96906.63;;;16.15;53.79
40117;BME280;25829;50.228;18.936;2023-10-31T07:48:44;96902.66;;;16.13;53.46
40117;BME280;25829;50.228;18.936;2023-10-31T07:52:37;96912.84;;;16.06;54.16
40117;BME280;25829;50.228;18.936;2023-10-31T07:55:38;96917.91;;;16.02;54.13
40117;BME280;25829;50.228;18.936;2023-10-31T07:58:39;96928.84;;;16.00;54.41
40117;BME280;25829;50.228;18.936;2023-10-31T08:01:40;96929.63;;;16.01;54.26
40117;BME280;25829;50.228;18.936;2023-10-31T08:04:41;96944.81;;;16.00;54.47
40117;BME280;25829;50.228;18.936;2023-10-31T08:07:41;96954.91;;;16.03;54.64
40117;BME280;25829;50.228;18.936;2023-10-31T08:10:42;96952.50;;;16.02;54.36
40117;BME280;25829;50.228;18.936;2023-10-31T08:13:43;96954.44;;;15.96;54.30
40117;BME280;25829;50.228;18.936;2023-10-31T08:16:44;96958.44;;;15.94;54.66
40117;BME280;25829;50.228;18.936;2023-10-31T08:19:45;96963.50;;;15.90;54.21
40117;BME280;25829;50.228;18.936;2023-10-31T08:22:47;96957.16;;;15.86;54.42
40117;BME280;25829;50.228;18.936;2023-10-31T08:25:48;96959.81;;;15.86;54.61
40117;BME280;25829;50.228;18.936;2023-10-31T08:28:49;96959.81;;;15.86;54.88
40117;BME280;25829;50.228;18.936;2023-10-31T08:31:50;96969.94;;;15.84;54.60
40117;BME280;25829;50.228;18.936;2023-10-31T08:34:50;96981.91;;;15.82;54.49
40117;BME280;25829;50.228;18.936;2023-10-31T08:37:51;96982.69;;;15.82;54.95
40117;BME280;25829;50.228;18.936;2023-10-31T08:40:52;96981.13;;;15.81;54.65
40117;BME280;25829;50.228;18.936;2023-10-31T08:43:52;96998.41;;;15.78;54.72
40117;BME280;25829;50.228;18.936;2023-10-31T08:46:54;96998.47;;;15.73;54.25
40117;BME280;25829;50.228;18.936;2023-10-31T08:49:55;97003.25;;;15.71;54.79
40117;BME280;25829;50.228;18.936;2023-10-31T08:52:58;97017.91;;;15.69;55.08
40117;BME280;25829;50.228;18.936;2023-10-31T08:56:05;97020.88;;;15.62;55.47
40117;BME280;25829;50.228;18.936;2023-10-31T08:59:06;97010.25;;;15.57;55.63
40117;BME280;25829;50.228;18.936;2023-10-31T09:02:08;97002.81;;;15.54;55.94
40117;BME280;25829;50.228;18.936;2023-10-31T09:05:09;97036.09;;;15.51;56.39
40117;BME280;25829;50.228;18.936;2023-10-31T09:08:10;97029.69;;;15.47;56.61
40117;BME280;25829;50.228;18.936;2023-10-31T09:11:10;97040.38;;;15.42;57.08
40117;BME280;25829;50.228;18.936;2023-10-31T09:14:11;97056.31;;;15.37;57.62
40117;BME280;25829;50.228;18.936;2023-10-31T09:17:12;97070.97;;;15.29;58.46
40117;BME280;25829;50.228;18.936;2023-10-31T09:20:13;97060.63;;;15.18;59.48
40117;BME280;25829;50.228;18.936;2023-10-31T09:23:14;97069.16;;;15.15;60.11
40117;BME280;25829;50.228;18.936;2023-10-31T09:26:14;97067.81;;;15.12;60.30
40117;BME280;25829;50.228;18.936;2023-10-31T09:29:15;97071.84;;;15.09;60.84
40117;BME280;25829;50.228;18.936;2023-10-31T09:32:16;97075.84;;;14.97;61.61
40117;BME280;25829;50.228;18.936;2023-10-31T09:35:17;97082.22;;;14.91;61.85
40117;BME280;25829;50.228;18.936;2023-10-31T09:38:18;97088.88;;;14.83;61.94
40117;BME280;25829;50.228;18.936;2023-10-31T09:41:19;97092.59;;;14.77;62.76
40117;BME280;25829;50.228;18.936;2023-10-31T09:44:20;97088.34;;;14.71;63.30
40117;BME280;25829;50.228;18.936;2023-10-31T09:47:20;97090.50;;;14.69;62.96
40117;BME280;25829;50.228;18.936;2023-10-31T09:50:22;97088.91;;;14.73;62.96
40117;BME280;25829;50.228;18.936;2023-10-31T09:53:23;97088.63;;;14.79;62.86
40117;BME280;25829;50.228;18.936;2023-10-31T09:56:24;97085.16;;;14.89;62.86
40117;BME280;25829;50.228;18.936;2023-10-31T09:59:25;97091.75;;;15.02;62.75
40117;BME280;25829;50.228;18.936;2023-10-31T10:02:26;97096.78;;;15.14;62.41
40117;BME280;25829;50.228;18.936;2023-10-31T10:05:28;97090.94;;;15.27;62.21
40117;BME280;25829;50.228;18.936;2023-10-31T10:08:31;97096.19;;;15.42;61.81
40117;BME280;25829;50.228;18.936;2023-10-31T10:11:33;97088.47;;;15.46;61.60
40117;BME280;25829;50.228;18.936;2023-10-31T10:14:34;97088.72;;;15.49;61.45
40117;BME280;25829;50.228;18.936;2023-10-31T10:17:35;97075.09;;;15.61;61.60
40117;BME280;25829;50.228;18.936;2023-10-31T10:20:36;97071.06;;;15.69;61.36
40117;BME280;25829;50.228;18.936;2023-10-31T10:23:36;97064.94;;;15.73;60.89
40117;BME280;25829;50.228;18.936;2023-10-31T10:26:37;97067.03;;;15.76;61.08
40117;BME280;25829;50.228;18.936;2023-10-31T10:29:38;97064.09;;;15.83;61.08
40117;BME280;25829;50.228;18.936;2023-10-31T10:32:39;97056.34;;;15.87;60.88
40117;BME280;25829;50.228;18.936;2023-10-31T10:35:40;97059.00;;;15.87;60.86
40117;BME280;25829;50.228;18.936;2023-10-31T10:38:43;97069.66;;;15.82;60.87
40117;BME280;25829;50.228;18.936;2023-10-31T10:41:53;97096.53;;;15.75;60.68
40117;BME280;25829;50.228;18.936;2023-10-31T10:45:02;97077.47;;;15.63;61.07
40117;BME280;25829;50.228;18.936;2023-10-31T10:48:19;97088.94;;;15.58;61.47
40117;BME280;25829;50.228;18.936;2023-10-31T10:55:19;97095.59;;;15.55;61.50
40117;BME280;25829;50.228;18.936;2023-10-31T10:59:34;97085.25;;;15.49;61.71
40117;BME280;25829;50.228;18.936;2023-10-31T11:02:42;97095.88;;;15.49;62.02
40117;BME280;25829;50.228;18.936;2023-10-31T11:07:00;97103.59;;;15.45;61.92
40117;BME280;25829;50.228;18.936;2023-10-31T11:11:16;97110.78;;;15.45;62.14
40117;BME280;25829;50.228;18.936;2023-10-31T11:28:27;97077.66;;;15.17;62.84
40117;BME280;25829;50.228;18.936;2023-10-31T11:31:28;97073.38;;;15.16;62.75
40117;BME280;25829;50.228;18.936;2023-10-31T11:34:29;97082.97;;;15.17;62.70
40117;BME280;25829;50.228;18.936;2023-10-31T11:37:33;97097.00;;;15.22;62.88
40117;BME280;25829;50.228;18.936;2023-10-31T11:40:36;97119.34;;;15.21;62.91
40117;BME280;25829;50.228;18.936;2023-10-31T11:46:41;97104.22;;;15.27;63.05
40117;BME280;25829;50.228;18.936;2023-10-31T11:49:47;97106.06;;;15.31;63.06
40117;BME280;25829;50.228;18.936;2023-10-31T11:55:59;97091.16;;;15.36;62.96
40117;BME280;25829;50.228;18.936;2023-10-31T11:59:05;97089.81;;;15.38;62.77
40117;BME280;25829;50.228;18.936;2023-10-31T12:02:14;97092.72;;;15.37;62.85
40117;BME280;25829;50.228;18.936;2023-10-31T12:05:15;97082.38;;;15.35;62.78
40117;BME280;25829;50.228;18.936;2023-10-31T12:08:24;97064.59;;;15.36;62.78
40117;BME280;25829;50.228;18.936;2023-10-31T12:11:25;97057.44;;;15.31;62.94
40117;BME280;25829;50.228;18.936;2023-10-31T12:14:26;97051.59;;;15.34;62.80
40117;BME280;25829;50.228;18.936;2023-10-31T12:17:27;97058.72;;;15.39;62.94
40117;BME280;25829;50.228;18.936;2023-10-31T12:20:27;97059.22;;;15.41;62.71
40117;BME280;25829;50.228;18.936;2023-10-31T12:23:28;97053.41;;;15.39;62.67
40117;BME280;25829;50.228;18.936;2023-10-31T12:26:29;97050.22;;;15.37;62.51
40117;BME280;25829;50.228;18.936;2023-10-31T12:29:30;97044.13;;;15.36;62.85
40117;BME280;25829;50.228;18.936;2023-10-31T12:32:31;97029.75;;;15.37;62.69
40117;BME280;25829;50.228;18.936;2023-10-31T12:35:31;97018.31;;;15.42;62.83
40117;BME280;25829;50.228;18.936;2023-10-31T12:38:32;97024.44;;;15.37;62.75
40117;BME280;25829;50.228;18.936;2023-10-31T12:41:34;97039.63;;;15.26;63.11
40117;BME280;25829;50.228;18.936;2023-10-31T12:44:35;97049.19;;;15.22;63.22
40117;BME280;25829;50.228;18.936;2023-10-31T12:47:36;97039.91;;;15.20;63.29
40117;BME280;25829;50.228;18.936;2023-10-31T12:50:38;97033.81;;;15.14;63.33
40117;BME280;25829;50.228;18.936;2023-10-31T12:53:40;97048.44;;;15.12;63.50
40117;BME280;25829;50.228;18.936;2023-10-31T12:56:42;97059.59;;;15.14;63.47
40117;BME280;25829;50.228;18.936;2023-10-31T12:59:44;97052.13;;;15.16;63.56
40117;BME280;25829;50.228;18.936;2023-10-31T13:02:45;97063.03;;;15.14;63.62
40117;BME280;25829;50.228;18.936;2023-10-31T13:05:45;97067.56;;;15.14;63.49
40117;BME280;25829;50.228;18.936;2023-10-31T13:08:46;97078.22;;;15.03;63.63
40117;BME280;25829;50.228;18.936;2023-10-31T13:11:47;97092.84;;;14.96;63.77
40117;BME280;25829;50.228;18.936;2023-10-31T13:14:49;97096.31;;;14.86;64.10
40117;BME280;25829;50.228;18.936;2023-10-31T13:17:50;97096.06;;;14.72;64.32
40117;BME280;25829;50.228;18.936;2023-10-31T13:20:51;97095.00;;;14.63;64.66
40117;BME280;25829;50.228;18.936;2023-10-31T13:23:52;97092.09;;;14.59;65.32
40117;BME280;25829;50.228;18.936;2023-10-31T13:26:53;97117.03;;;14.53;66.15
40117;BME280;25829;50.228;18.936;2023-10-31T13:29:54;97120.50;;;14.38;66.94
40117;BME280;25829;50.228;18.936;2023-10-31T13:32:54;97107.22;;;14.28;67.41
40117;BME280;25829;50.228;18.936;2023-10-31T13:35:57;97105.34;;;14.24;68.35
40117;BME280;25829;50.228;18.936;2023-10-31T13:38:58;97097.09;;;14.20;68.69
40117;BME280;25829;50.228;18.936;2023-10-31T13:41:59;97093.91;;;14.18;69.14
40117;BME280;25829;50.228;18.936;2023-10-31T13:44:59;97088.63;;;14.13;69.51
40117;BME280;25829;50.228;18.936;2023-10-31T13:48:00;97082.75;;;14.11;69.96
40117;BME280;25829;50.228;18.936;2023-10-31T13:51:01;97069.50;;;14.11;70.36
40117;BME280;25829;50.228;18.936;2023-10-31T13:54:02;97067.94;;;14.10;70.62
40117;BME280;25829;50.228;18.936;2023-10-31T13:57:03;97087.28;;;14.10;71.24
40117;BME280;25829;50.228;18.936;2023-10-31T14:00:04;97103.19;;;14.10;71.19
40117;BME280;25829;50.228;18.936;2023-10-31T14:03:12;97113.25;;;14.08;71.75
40117;BME280;25829;50.228;18.936;2023-10-31T14:06:13;97115.38;;;14.06;71.81
40117;BME280;25829;50.228;18.936;2023-10-31T14:09:15;97123.03;;;13.98;72.07
40117;BME280;25829;50.228;18.936;2023-10-31T14:12:16;97131.50;;;13.84;72.25
40117;BME280;25829;50.228;18.936;2023-10-31T14:30:46;97146.19;;;13.45;74.21
40117;BME280;25829;50.228;18.936;2023-10-31T14:42:49;97149.53;;;13.25;75.48
40117;BME280;25829;50.228;18.936;2023-10-31T14:50:44;97140.50;;;13.21;75.81
40117;BME280;25829;50.228;18.936;2023-10-31T15:08:58;97146.66;;;12.94;76.71
40117;BME280;25829;50.228;18.936;2023-10-31T15:12:24;97141.59;;;12.87;76.37
40117;BME280;25829;50.228;18.936;2023-10-31T15:15:26;97159.31;;;12.87;76.07
40117;BME280;25829;50.228;18.936;2023-10-31T15:18:27;97180.47;;;12.82;76.12
40117;BME280;25829;50.228;18.936;2023-10-31T15:21:27;97171.97;;;12.80;76.34
40117;BME280;25829;50.228;18.936;2023-10-31T15:24:28;97174.63;;;12.80;76.20
40117;BME280;25829;50.228;18.936;2023-10-31T15:27:30;97168.78;;;12.78;76.26
40117;BME280;25829;50.228;18.936;2023-10-31T15:30:34;97166.38;;;12.76;76.41
40117;BME280;25829;50.228;18.936;2023-10-31T15:33:35;97177.75;;;12.77;76.08
40117;BME280;25829;50.228;18.936;2023-10-31T15:36:36;97184.38;;;12.74;76.18
40117;BME280;25829;50.228;18.936;2023-10-31T15:39:37;97181.75;;;12.74;76.08
40117;BME280;25829;50.228;18.936;2023-10-31T15:42:38;97170.31;;;12.73;75.92
40117;BME280;25829;50.228;18.936;2023-10-31T15:45:42;97171.38;;;12.72;75.71
40117;BME280;25829;50.228;18.936;2023-10-31T15:48:43;97165.00;;;12.68;75.91
40117;BME280;25829;50.228;18.936;2023-10-31T15:51:50;97166.88;;;12.68;76.33
40117;BME280;25829;50.228;18.936;2023-10-31T15:54:51;97173.19;;;12.67;76.23
40117;BME280;25829;50.228;18.936;2023-10-31T15:57:51;97182.75;;;12.68;76.37
40117;BME280;25829;50.228;18.936;2023-10-31T16:00:52;97174.50;;;12.64;76.17
40117;BME280;25829;50.228;18.936;2023-10-31T16:03:53;97177.38;;;12.63;76.29
40117;BME280;25829;50.228;18.936;2023-10-31T16:06:54;97173.16;;;12.62;76.34
40117;BME280;25829;50.228;18.936;2023-10-31T16:09:55;97182.16;;;12.61;76.37
40117;BME280;25829;50.228;18.936;2023-10-31T16:12:59;97193.75;;;12.60;76.64
40117;BME280;25829;50.228;18.936;2023-10-31T16:16:00;97205.09;;;12.55;76.64
40117;BME280;25829;50.228;18.936;2023-10-31T16:19:01;97217.25;;;12.51;76.70
40117;BME280;25829;50.228;18.936;2023-10-31T16:22:02;97210.06;;;12.46;76.76
40117;BME280;25829;50.228;18.936;2023-10-31T16:25:06;97202.38;;;12.45;76.72
40117;BME280;25829;50.228;18.936;2023-10-31T16:28:09;97193.91;;;12.43;76.81
40117;BME280;25829;50.228;18.936;2023-10-31T16:31:15;97210.00;;;12.41;76.82
40117;BME280;25829;50.228;18.936;2023-10-31T16:34:16;97204.72;;;12.41;76.70
40117;BME280;25829;50.228;18.936;2023-10-31T16:37:18;97214.22;;;12.42;76.72
40117;BME280;25829;50.228;18.936;2023-10-31T16:40:19;97215.59;;;12.45;76.83
40117;BME280;25829;50.228;18.936;2023-10-31T16:43:19;97228.59;;;12.46;76.75
40117;BME280;25829;50.228;18.936;2023-10-31T16:46:20;97243.63;;;12.46;77.12
40117;BME280;25829;50.228;18.936;2023-10-31T16:49:21;97243.81;;;12.39;77.16
40117;BME280;25829;50.228;18.936;2023-10-31T16:52:22;97261.81;;;12.37;77.18
40117;BME280;25829;50.228;18.936;2023-10-31T16:55:23;97268.88;;;12.32;77.55
40117;BME280;25829;50.228;18.936;2023-10-31T16:58:23;97290.50;;;12.29;77.36
40117;BME280;25829;50.228;18.936;2023-10-31T17:01:24;97298.97;;;12.26;77.35
40117;BME280;25829;50.228;18.936;2023-10-31T17:04:25;97318.75;;;12.23;77.40
40117;BME280;25829;50.228;18.936;2023-10-31T17:07:25;97320.53;;;12.17;77.44
40117;BME280;25829;50.228;18.936;2023-10-31T17:10:26;97327.63;;;12.12;77.70
40117;BME280;25829;50.228;18.936;2023-10-31T17:13:28;97336.81;;;12.09;77.81
40117;BME280;25829;50.228;18.936;2023-10-31T17:16:32;97351.88;;;12.09;77.89
40117;BME280;25829;50.228;18.936;2023-10-31T17:19:35;97351.56;;;12.05;78.14
40117;BME280;25829;50.228;18.936;2023-10-31T17:22:36;97354.38;;;11.98;78.04
40117;BME280;25829;50.228;18.936;2023-10-31T17:25:38;97361.72;;;11.96;78.37
40117;BME280;25829;50.228;18.936;2023-10-31T17:28:39;97360.63;;;11.92;78.29
40117;BME280;25829;50.228;18.936;2023-10-31T17:31:43;97366.88;;;11.86;78.33
40117;BME280;25829;50.228;18.936;2023-10-31T17:34:44;97365.50;;;11.84;78.61
40117;BME280;25829;50.228;18.936;2023-10-31T17:37:45;97370.41;;;11.75;78.63
40117;BME280;25829;50.228;18.936;2023-10-31T17:40:46;97367.44;;;11.71;78.72
40117;BME280;25829;50.228;18.936;2023-10-31T17:43:47;97383.78;;;11.68;78.65
40117;BME280;25829;50.228;18.936;2023-10-31T17:46:49;97383.19;;;11.66;78.79
40117;BME280;25829;50.228;18.936;2023-10-31T17:49:53;97373.94;;;11.64;78.79